ACA1327 TNCM-CYYZ
Flight info
| Callsign | ACA1327 |
|---|---|
| Flight time | 4h 14m |
| Altitude | 34000 |
| Route | MODOR2 TRNKY DCT KEEKA/M079F340 L459 NUBUS/M079F360 L459 SAVIK/N0452F360 Y486 OWENZ DCT LVZ DCT STUBN DCT WOZEE LINNG3 |
| Aircraft | B38M/M-SDE1FGHILORVWXY/HB1 |
Departure
| Time | 2026-05-05 13:01 |
|---|---|
| Airport | Princess Juliana International Airport (TNCM) |
Arrival
| Time | 2026-05-05 17:16 |
|---|---|
| Airport | Toronto Pearson International Airport (CYYZ) |
| Time | Latitude | Longitude | Altitude | Speed | Heading |
|---|---|---|---|---|---|
| 2026-05-05 12:29 | 18.04340 | -63.11296 | 31 ft | 0 kts | 349° |
| 2026-05-05 12:50 | 18.04339 | -63.11296 | 31 ft | 2 kts | 349° |
| 2026-05-05 12:50 | 18.04315 | -63.11290 | 31 ft | 3 kts | 347° |
| 2026-05-05 12:50 | 18.04294 | -63.11287 | 31 ft | 4 kts | 14° |
| 2026-05-05 12:51 | 18.04270 | -63.11298 | 31 ft | 4 kts | 26° |
| 2026-05-05 12:51 | 18.04245 | -63.11310 | 31 ft | 4 kts | 20° |
| 2026-05-05 12:51 | 18.04221 | -63.11317 | 31 ft | 2 kts | 11° |
| 2026-05-05 12:51 | 18.04215 | -63.11319 | 31 ft | 0 kts | 11° |
| 2026-05-05 12:57 | 18.04216 | -63.11319 | 31 ft | 1 kts | 11° |
| 2026-05-05 12:58 | 18.04238 | -63.11326 | 31 ft | 7 kts | 313° |
| 2026-05-05 12:58 | 18.04237 | -63.11400 | 31 ft | 14 kts | 263° |
| 2026-05-05 12:58 | 18.04189 | -63.11519 | 31 ft | 21 kts | 232° |
| 2026-05-05 12:58 | 18.04153 | -63.11565 | 31 ft | 4 kts | 230° |
| 2026-05-05 12:59 | 18.04121 | -63.11605 | 31 ft | 12 kts | 231° |
| 2026-05-05 12:59 | 18.04059 | -63.11716 | 30 ft | 22 kts | 261° |
| 2026-05-05 12:59 | 18.04043 | -63.11840 | 30 ft | 8 kts | 262° |
| 2026-05-05 13:00 | 18.04031 | -63.11894 | 30 ft | 12 kts | 246° |
| 2026-05-05 13:00 | 18.03968 | -63.11962 | 30 ft | 7 kts | 183° |
| 2026-05-05 13:01 | 18.03991 | -63.11597 | 30 ft | 86 kts | 82° |
| 2026-05-05 13:01 | 18.04108 | -63.10724 | 32 ft | 152 kts | 83° |
| 2026-05-05 13:01 | 18.04269 | -63.09473 | 292 ft | 188 kts | 88° |
| 2026-05-05 13:01 | 18.04005 | -63.08150 | 1152 ft | 181 kts | 114° |
| 2026-05-05 13:02 | 18.03228 | -63.07123 | 1939 ft | 196 kts | 144° |
| 2026-05-05 13:02 | 18.01794 | -63.06851 | 2533 ft | 222 kts | 179° |
| 2026-05-05 13:02 | 18.00204 | -63.06976 | 3245 ft | 239 kts | 181° |
| 2026-05-05 13:02 | 17.98544 | -63.07146 | 4100 ft | 239 kts | 181° |
| 2026-05-05 13:03 | 17.96872 | -63.07311 | 5051 ft | 242 kts | 182° |
| 2026-05-05 13:03 | 17.95182 | -63.07472 | 6009 ft | 249 kts | 182° |
| 2026-05-05 13:03 | 17.93393 | -63.07636 | 6669 ft | 267 kts | 182° |
| 2026-05-05 13:03 | 17.91498 | -63.07810 | 7425 ft | 276 kts | 183° |
| 2026-05-05 13:04 | 17.89571 | -63.07993 | 8355 ft | 279 kts | 182° |
| 2026-05-05 13:04 | 17.87622 | -63.08176 | 9272 ft | 284 kts | 183° |
| 2026-05-05 13:04 | 17.85662 | -63.07966 | 10148 ft | 286 kts | 158° |
| 2026-05-05 13:04 | 17.84011 | -63.06762 | 10730 ft | 301 kts | 129° |
| 2026-05-05 13:05 | 17.83134 | -63.04754 | 11168 ft | 320 kts | 99° |
| 2026-05-05 13:05 | 17.83356 | -63.02349 | 11585 ft | 339 kts | 69° |
| 2026-05-05 13:05 | 17.84707 | -63.00323 | 12084 ft | 352 kts | 40° |
| 2026-05-05 13:05 | 17.86901 | -62.99151 | 12650 ft | 361 kts | 11° |
| 2026-05-05 13:06 | 17.89391 | -62.99204 | 13445 ft | 361 kts | 343° |
| 2026-05-05 13:06 | 17.91603 | -63.00436 | 14087 ft | 364 kts | 317° |
| 2026-05-05 13:06 | 17.93475 | -63.02231 | 14783 ft | 366 kts | 318° |
| 2026-05-05 13:06 | 17.95404 | -63.03981 | 15515 ft | 367 kts | 319° |
| 2026-05-05 13:07 | 17.97345 | -63.05732 | 16218 ft | 369 kts | 319° |
| 2026-05-05 13:07 | 17.99316 | -63.07475 | 16886 ft | 372 kts | 321° |
| 2026-05-05 13:07 | 18.01457 | -63.09009 | 17582 ft | 374 kts | 325° |
| 2026-05-05 13:07 | 18.03715 | -63.10389 | 18217 ft | 378 kts | 335° |
| 2026-05-05 13:08 | 18.06206 | -63.11319 | 18768 ft | 382 kts | 341° |
| 2026-05-05 13:08 | 18.08783 | -63.12093 | 19260 ft | 387 kts | 343° |
| 2026-05-05 13:08 | 18.11420 | -63.12764 | 19763 ft | 391 kts | 346° |
| 2026-05-05 13:08 | 18.14101 | -63.13371 | 20222 ft | 397 kts | 347° |
| 2026-05-05 13:09 | 18.16821 | -63.13947 | 20715 ft | 400 kts | 347° |
| 2026-05-05 13:09 | 18.19571 | -63.14510 | 21149 ft | 406 kts | 348° |
| 2026-05-05 13:09 | 18.22364 | -63.15071 | 21552 ft | 411 kts | 348° |
| 2026-05-05 13:09 | 18.25192 | -63.15635 | 21983 ft | 416 kts | 347° |
| 2026-05-05 13:10 | 18.28017 | -63.16196 | 22415 ft | 420 kts | 348° |
| 2026-05-05 13:10 | 18.30910 | -63.16769 | 22820 ft | 426 kts | 348° |
| 2026-05-05 13:10 | 18.33842 | -63.17350 | 23228 ft | 430 kts | 348° |
| 2026-05-05 13:10 | 18.36791 | -63.17933 | 23687 ft | 433 kts | 348° |
| 2026-05-05 13:11 | 18.39777 | -63.18525 | 23967 ft | 438 kts | 348° |
| 2026-05-05 13:11 | 18.42701 | -63.19392 | 24400 ft | 437 kts | 335° |
| 2026-05-05 13:11 | 18.45448 | -63.20789 | 24748 ft | 440 kts | 333° |
| 2026-05-05 13:11 | 18.48222 | -63.22185 | 25117 ft | 442 kts | 333° |
| 2026-05-05 13:12 | 18.50995 | -63.23600 | 25553 ft | 443 kts | 333° |
| 2026-05-05 13:12 | 18.53775 | -63.25031 | 25875 ft | 447 kts | 332° |
| 2026-05-05 13:12 | 18.56571 | -63.26476 | 26293 ft | 448 kts | 333° |
| 2026-05-05 13:12 | 18.59378 | -63.27925 | 26712 ft | 449 kts | 333° |
| 2026-05-05 13:13 | 18.62194 | -63.29380 | 27035 ft | 452 kts | 332° |
| 2026-05-05 13:13 | 18.64994 | -63.30828 | 27423 ft | 454 kts | 333° |
| 2026-05-05 13:13 | 18.67835 | -63.32297 | 27824 ft | 455 kts | 332° |
| 2026-05-05 13:13 | 18.70689 | -63.33774 | 28157 ft | 458 kts | 333° |
| 2026-05-05 13:14 | 18.73555 | -63.35257 | 28517 ft | 460 kts | 333° |
| 2026-05-05 13:14 | 18.76438 | -63.36749 | 28899 ft | 461 kts | 333° |
| 2026-05-05 13:14 | 18.79329 | -63.38248 | 29211 ft | 464 kts | 332° |
| 2026-05-05 13:14 | 18.82237 | -63.39755 | 29547 ft | 466 kts | 333° |
| 2026-05-05 13:15 | 18.85157 | -63.41268 | 29909 ft | 468 kts | 333° |
| 2026-05-05 13:15 | 18.88085 | -63.42786 | 30186 ft | 471 kts | 332° |
| 2026-05-05 13:15 | 18.91034 | -63.44316 | 30493 ft | 472 kts | 332° |
| 2026-05-05 13:15 | 18.93983 | -63.45846 | 30813 ft | 472 kts | 332° |
| 2026-05-05 13:16 | 18.96899 | -63.47361 | 31129 ft | 473 kts | 331° |
| 2026-05-05 13:16 | 18.99854 | -63.48896 | 31431 ft | 474 kts | 332° |
| 2026-05-05 13:16 | 19.02815 | -63.50434 | 31778 ft | 473 kts | 332° |
| 2026-05-05 13:16 | 19.05767 | -63.51969 | 32160 ft | 472 kts | 332° |
| 2026-05-05 13:17 | 19.08714 | -63.53501 | 32562 ft | 470 kts | 332° |
| 2026-05-05 13:17 | 19.11648 | -63.55028 | 32969 ft | 469 kts | 331° |
| 2026-05-05 13:17 | 19.14571 | -63.56549 | 33381 ft | 467 kts | 332° |
| 2026-05-05 13:17 | 19.17480 | -63.58063 | 33787 ft | 465 kts | 331° |
| 2026-05-05 13:18 | 19.20376 | -63.59572 | 34104 ft | 463 kts | 331° |
| 2026-05-05 13:18 | 19.23218 | -63.61053 | 34125 ft | 459 kts | 331° |
| 2026-05-05 13:18 | 19.28930 | -63.64031 | 34115 ft | 457 kts | 331° |
| 2026-05-05 13:19 | 19.34640 | -63.67010 | 34115 ft | 458 kts | 331° |
| 2026-05-05 13:19 | 19.40355 | -63.69994 | 34116 ft | 458 kts | 331° |
| 2026-05-05 13:20 | 19.46075 | -63.72983 | 34115 ft | 458 kts | 331° |
| 2026-05-05 13:20 | 19.51755 | -63.75954 | 34119 ft | 458 kts | 331° |
| 2026-05-05 13:21 | 19.57468 | -63.78944 | 34117 ft | 457 kts | 331° |
| 2026-05-05 13:21 | 19.63179 | -63.81935 | 34112 ft | 458 kts | 331° |
| 2026-05-05 13:22 | 19.68890 | -63.84929 | 34117 ft | 458 kts | 331° |
| 2026-05-05 13:22 | 19.74605 | -63.87928 | 34118 ft | 458 kts | 331° |
| 2026-05-05 13:23 | 19.80314 | -63.90926 | 34117 ft | 457 kts | 330° |
| 2026-05-05 13:23 | 19.85988 | -63.93908 | 34116 ft | 458 kts | 330° |
| 2026-05-05 13:24 | 19.91697 | -63.96910 | 34114 ft | 458 kts | 330° |
| 2026-05-05 13:24 | 19.97400 | -63.99912 | 34113 ft | 458 kts | 330° |
| 2026-05-05 13:25 | 20.03107 | -64.02918 | 34120 ft | 458 kts | 330° |
| 2026-05-05 13:25 | 20.08812 | -64.05926 | 34130 ft | 458 kts | 330° |
| 2026-05-05 13:26 | 20.14522 | -64.08938 | 34119 ft | 458 kts | 330° |
| 2026-05-05 13:26 | 20.20234 | -64.11955 | 34116 ft | 458 kts | 330° |
| 2026-05-05 13:27 | 20.25902 | -64.14951 | 34119 ft | 458 kts | 330° |
| 2026-05-05 13:27 | 20.31620 | -64.17975 | 34119 ft | 458 kts | 330° |
| 2026-05-05 13:28 | 20.37330 | -64.20998 | 34123 ft | 458 kts | 330° |
| 2026-05-05 13:28 | 20.43038 | -64.24023 | 34127 ft | 458 kts | 330° |
| 2026-05-05 13:29 | 20.48751 | -64.27052 | 34119 ft | 458 kts | 330° |
| 2026-05-05 13:29 | 20.54456 | -64.30080 | 34120 ft | 458 kts | 330° |
| 2026-05-05 13:30 | 20.60165 | -64.33112 | 34120 ft | 458 kts | 330° |
| 2026-05-05 13:30 | 20.65844 | -64.36131 | 34127 ft | 458 kts | 330° |
| 2026-05-05 13:31 | 20.71557 | -64.39170 | 34122 ft | 458 kts | 329° |
| 2026-05-05 13:31 | 20.77269 | -64.42212 | 34128 ft | 459 kts | 329° |
| 2026-05-05 13:32 | 20.82982 | -64.45257 | 34121 ft | 459 kts | 329° |
| 2026-05-05 13:32 | 20.88665 | -64.48288 | 34121 ft | 459 kts | 329° |
| 2026-05-05 13:33 | 20.94381 | -64.51340 | 34123 ft | 459 kts | 329° |
| 2026-05-05 13:33 | 21.00094 | -64.54392 | 34124 ft | 459 kts | 329° |
| 2026-05-05 13:34 | 21.05804 | -64.57446 | 34124 ft | 459 kts | 329° |
| 2026-05-05 13:34 | 21.11526 | -64.60509 | 34126 ft | 459 kts | 329° |
| 2026-05-05 13:35 | 21.17243 | -64.63571 | 34121 ft | 459 kts | 329° |
| 2026-05-05 13:35 | 21.22925 | -64.66618 | 34121 ft | 459 kts | 329° |
| 2026-05-05 13:36 | 21.28648 | -64.69689 | 34123 ft | 459 kts | 329° |
| 2026-05-05 13:36 | 21.34361 | -64.72757 | 34123 ft | 459 kts | 329° |
| 2026-05-05 13:37 | 21.40082 | -64.75833 | 34120 ft | 459 kts | 329° |
| 2026-05-05 13:37 | 21.45801 | -64.78910 | 34126 ft | 460 kts | 329° |
| 2026-05-05 13:38 | 21.50557 | -64.81471 | 34123 ft | 460 kts | 329° |
| 2026-05-05 13:38 | 21.56277 | -64.84554 | 34128 ft | 460 kts | 329° |
| 2026-05-05 13:39 | 21.62000 | -64.87641 | 34121 ft | 460 kts | 329° |
| 2026-05-05 13:39 | 21.67684 | -64.90710 | 34121 ft | 460 kts | 329° |
| 2026-05-05 13:40 | 21.73401 | -64.93799 | 34133 ft | 460 kts | 328° |
| 2026-05-05 13:40 | 21.79127 | -64.96895 | 34119 ft | 460 kts | 328° |
| 2026-05-05 13:41 | 21.84856 | -64.99996 | 34123 ft | 460 kts | 328° |
| 2026-05-05 13:41 | 21.90572 | -65.03092 | 34123 ft | 460 kts | 328° |
| 2026-05-05 13:42 | 21.96293 | -65.06194 | 34123 ft | 460 kts | 328° |
| 2026-05-05 13:42 | 22.02009 | -65.09297 | 34122 ft | 460 kts | 328° |
| 2026-05-05 13:43 | 22.07691 | -65.12383 | 34132 ft | 460 kts | 328° |
| 2026-05-05 13:43 | 22.10653 | -65.13738 | 34106 ft | 468 kts | 339° |
| 2026-05-05 13:43 | 22.13818 | -65.14608 | 34128 ft | 469 kts | 339° |
| 2026-05-05 13:44 | 22.20131 | -65.16435 | 34128 ft | 470 kts | 340° |
| 2026-05-05 13:44 | 22.26460 | -65.18236 | 34123 ft | 470 kts | 340° |
| 2026-05-05 13:45 | 22.32737 | -65.20020 | 34127 ft | 470 kts | 340° |
| 2026-05-05 13:45 | 22.39054 | -65.21817 | 34137 ft | 470 kts | 340° |
| 2026-05-05 13:46 | 22.45384 | -65.23619 | 34125 ft | 470 kts | 340° |
| 2026-05-05 13:46 | 22.51716 | -65.25424 | 34124 ft | 470 kts | 340° |
| 2026-05-05 13:47 | 22.58048 | -65.27230 | 34127 ft | 470 kts | 340° |
| 2026-05-05 13:47 | 22.64335 | -65.29026 | 34129 ft | 470 kts | 340° |
| 2026-05-05 13:48 | 22.70664 | -65.30835 | 34131 ft | 470 kts | 339° |
| 2026-05-05 13:48 | 22.76988 | -65.32644 | 34127 ft | 470 kts | 339° |
| 2026-05-05 13:49 | 22.83307 | -65.34454 | 34127 ft | 470 kts | 339° |
| 2026-05-05 13:49 | 22.89642 | -65.36270 | 34124 ft | 470 kts | 339° |
| 2026-05-05 13:50 | 22.95926 | -65.38073 | 34126 ft | 470 kts | 339° |
| 2026-05-05 13:50 | 23.02251 | -65.39890 | 34134 ft | 470 kts | 339° |
| 2026-05-05 13:51 | 23.08582 | -65.41709 | 34128 ft | 470 kts | 339° |
| 2026-05-05 13:51 | 23.14863 | -65.43517 | 34128 ft | 470 kts | 339° |
| 2026-05-05 13:52 | 23.21186 | -65.45338 | 34128 ft | 470 kts | 339° |
| 2026-05-05 13:52 | 23.27508 | -65.47161 | 34131 ft | 470 kts | 339° |
| 2026-05-05 13:53 | 23.33836 | -65.48987 | 34133 ft | 471 kts | 339° |
| 2026-05-05 13:53 | 23.40182 | -65.50821 | 34130 ft | 471 kts | 339° |
| 2026-05-05 13:54 | 23.46517 | -65.52652 | 34127 ft | 471 kts | 339° |
| 2026-05-05 13:54 | 23.52915 | -65.54144 | 34141 ft | 475 kts | 345° |
| 2026-05-05 13:55 | 23.59457 | -65.55294 | 34125 ft | 476 kts | 345° |
| 2026-05-05 13:55 | 23.66000 | -65.56432 | 34136 ft | 477 kts | 345° |
| 2026-05-05 13:56 | 23.72567 | -65.57573 | 34133 ft | 477 kts | 345° |
| 2026-05-05 13:56 | 23.79087 | -65.58706 | 34132 ft | 477 kts | 345° |
| 2026-05-05 13:57 | 23.85651 | -65.59848 | 34130 ft | 477 kts | 345° |
| 2026-05-05 13:57 | 23.92220 | -65.60992 | 34144 ft | 478 kts | 345° |
| 2026-05-05 13:58 | 23.98759 | -65.62131 | 34134 ft | 474 kts | 345° |
| 2026-05-05 13:58 | 24.05276 | -65.63269 | 34133 ft | 474 kts | 345° |
| 2026-05-05 13:59 | 24.15053 | -65.64977 | 34129 ft | 474 kts | 345° |
| 2026-05-05 14:00 | 24.24786 | -65.66680 | 34137 ft | 474 kts | 345° |
| 2026-05-05 14:00 | 24.31300 | -65.67821 | 34133 ft | 474 kts | 345° |
| 2026-05-05 14:01 | 24.37820 | -65.68964 | 34132 ft | 474 kts | 345° |
| 2026-05-05 14:01 | 24.44334 | -65.70108 | 34128 ft | 474 kts | 345° |
| 2026-05-05 14:02 | 24.50845 | -65.71252 | 34148 ft | 474 kts | 346° |
| 2026-05-05 14:02 | 24.57351 | -65.72397 | 34132 ft | 477 kts | 346° |
| 2026-05-05 14:03 | 24.63922 | -65.73554 | 34131 ft | 477 kts | 346° |
| 2026-05-05 14:03 | 24.70491 | -65.74712 | 34128 ft | 478 kts | 346° |
| 2026-05-05 14:04 | 24.77012 | -65.75863 | 34127 ft | 477 kts | 346° |
| 2026-05-05 14:04 | 24.83579 | -65.77023 | 34128 ft | 479 kts | 346° |
| 2026-05-05 14:05 | 24.90186 | -65.78192 | 34123 ft | 480 kts | 346° |
| 2026-05-05 14:05 | 24.96783 | -65.79360 | 34140 ft | 480 kts | 346° |
| 2026-05-05 14:06 | 25.03385 | -65.80531 | 34130 ft | 480 kts | 346° |
| 2026-05-05 14:06 | 25.09996 | -65.81704 | 34147 ft | 480 kts | 346° |
| 2026-05-05 14:07 | 25.16554 | -65.82869 | 34132 ft | 480 kts | 346° |
| 2026-05-05 14:07 | 25.23155 | -65.84043 | 34130 ft | 480 kts | 346° |
| 2026-05-05 14:08 | 25.29759 | -65.85219 | 34127 ft | 480 kts | 346° |
| 2026-05-05 14:08 | 25.36364 | -65.86397 | 34125 ft | 480 kts | 346° |
| 2026-05-05 14:09 | 25.42929 | -65.87568 | 34133 ft | 480 kts | 347° |
| 2026-05-05 14:09 | 25.49528 | -65.88747 | 34128 ft | 480 kts | 347° |
| 2026-05-05 14:10 | 25.56124 | -65.89927 | 34122 ft | 480 kts | 347° |
| 2026-05-05 14:10 | 25.62690 | -65.91103 | 34123 ft | 480 kts | 347° |
| 2026-05-05 14:11 | 25.69291 | -65.92286 | 34124 ft | 480 kts | 347° |
| 2026-05-05 14:11 | 25.75886 | -65.93469 | 34132 ft | 480 kts | 347° |
| 2026-05-05 14:12 | 25.82482 | -65.94654 | 34122 ft | 480 kts | 347° |
| 2026-05-05 14:12 | 25.89087 | -65.95842 | 34122 ft | 480 kts | 347° |
| 2026-05-05 14:13 | 25.95632 | -65.97021 | 34119 ft | 480 kts | 347° |
| 2026-05-05 14:13 | 26.02247 | -65.98213 | 34121 ft | 483 kts | 347° |
| 2026-05-05 14:14 | 26.08889 | -65.99412 | 34123 ft | 483 kts | 347° |
| 2026-05-05 14:14 | 26.15535 | -66.00613 | 34116 ft | 483 kts | 347° |
| 2026-05-05 14:15 | 26.22181 | -66.01815 | 34113 ft | 483 kts | 347° |
| 2026-05-05 14:15 | 26.28781 | -66.03010 | 34128 ft | 485 kts | 346° |
| 2026-05-05 14:16 | 26.35460 | -66.04221 | 34117 ft | 487 kts | 346° |
| 2026-05-05 14:16 | 26.42148 | -66.05435 | 34122 ft | 487 kts | 346° |
| 2026-05-05 14:17 | 26.48837 | -66.06651 | 34116 ft | 487 kts | 346° |
| 2026-05-05 14:17 | 26.55525 | -66.07867 | 34133 ft | 487 kts | 346° |
| 2026-05-05 14:18 | 26.62247 | -66.09092 | 34112 ft | 491 kts | 346° |
| 2026-05-05 14:18 | 26.68959 | -66.10316 | 34108 ft | 492 kts | 346° |
| 2026-05-05 14:19 | 26.75714 | -66.11549 | 34109 ft | 491 kts | 346° |
| 2026-05-05 14:19 | 26.82464 | -66.12784 | 34107 ft | 491 kts | 346° |
| 2026-05-05 14:20 | 26.89228 | -66.14022 | 34112 ft | 494 kts | 345° |
| 2026-05-05 14:20 | 26.96012 | -66.15265 | 34108 ft | 494 kts | 345° |
| 2026-05-05 14:21 | 27.02760 | -66.16503 | 34105 ft | 494 kts | 345° |
| 2026-05-05 14:21 | 27.09544 | -66.17749 | 34110 ft | 494 kts | 345° |
| 2026-05-05 14:22 | 27.16328 | -66.18997 | 34116 ft | 493 kts | 344° |
| 2026-05-05 14:22 | 27.23089 | -66.20242 | 34108 ft | 492 kts | 344° |
| 2026-05-05 14:23 | 27.29852 | -66.21489 | 34114 ft | 492 kts | 344° |
| 2026-05-05 14:23 | 27.36558 | -66.22727 | 34113 ft | 492 kts | 344° |
| 2026-05-05 14:24 | 27.43309 | -66.23975 | 34142 ft | 491 kts | 343° |
| 2026-05-05 14:24 | 27.50037 | -66.25220 | 34152 ft | 488 kts | 343° |
| 2026-05-05 14:25 | 27.56685 | -66.26452 | 34120 ft | 482 kts | 343° |
| 2026-05-05 14:25 | 27.63257 | -66.27671 | 34119 ft | 482 kts | 343° |
| 2026-05-05 14:26 | 27.69880 | -66.28902 | 34142 ft | 482 kts | 344° |
| 2026-05-05 14:26 | 27.76511 | -66.30135 | 34123 ft | 482 kts | 344° |
| 2026-05-05 14:27 | 27.83133 | -66.31368 | 34114 ft | 482 kts | 344° |
| 2026-05-05 14:27 | 27.89719 | -66.32596 | 34109 ft | 482 kts | 344° |
| 2026-05-05 14:28 | 27.96348 | -66.33833 | 34122 ft | 482 kts | 344° |
| 2026-05-05 14:28 | 28.02998 | -66.35077 | 34120 ft | 488 kts | 343° |
| 2026-05-05 14:29 | 28.09676 | -66.36326 | 34127 ft | 489 kts | 343° |
| 2026-05-05 14:29 | 28.16395 | -66.37585 | 34130 ft | 489 kts | 343° |
| 2026-05-05 14:30 | 28.23114 | -66.38846 | 34127 ft | 489 kts | 343° |
| 2026-05-05 14:30 | 28.29819 | -66.40105 | 34159 ft | 486 kts | 344° |
| 2026-05-05 14:31 | 28.36475 | -66.41357 | 34134 ft | 484 kts | 343° |
| 2026-05-05 14:31 | 28.43127 | -66.42610 | 34132 ft | 484 kts | 343° |
| 2026-05-05 14:32 | 28.49740 | -66.43857 | 34139 ft | 484 kts | 343° |
| 2026-05-05 14:32 | 28.56403 | -66.45115 | 34137 ft | 484 kts | 343° |
| 2026-05-05 14:33 | 28.63053 | -66.46372 | 34137 ft | 484 kts | 343° |
| 2026-05-05 14:33 | 28.69665 | -66.47624 | 34138 ft | 484 kts | 343° |
| 2026-05-05 14:34 | 28.76322 | -66.48886 | 34137 ft | 484 kts | 343° |
| 2026-05-05 14:34 | 28.82971 | -66.50147 | 34153 ft | 485 kts | 344° |
| 2026-05-05 14:35 | 28.89649 | -66.51416 | 34150 ft | 486 kts | 344° |
| 2026-05-05 14:35 | 28.96330 | -66.52688 | 34149 ft | 486 kts | 344° |
| 2026-05-05 14:36 | 29.02970 | -66.53953 | 34146 ft | 486 kts | 344° |
| 2026-05-05 14:36 | 29.09657 | -66.55229 | 34148 ft | 486 kts | 344° |
| 2026-05-05 14:37 | 29.16350 | -66.56507 | 34149 ft | 489 kts | 343° |
| 2026-05-05 14:37 | 29.21933 | -66.57575 | 34166 ft | 490 kts | 343° |
| 2026-05-05 14:38 | 29.28666 | -66.58864 | 34155 ft | 490 kts | 343° |
| 2026-05-05 14:38 | 29.35409 | -66.60157 | 34152 ft | 490 kts | 343° |
| 2026-05-05 14:39 | 29.42096 | -66.61442 | 34161 ft | 492 kts | 343° |
| 2026-05-05 14:39 | 29.48865 | -66.62742 | 34161 ft | 493 kts | 343° |
| 2026-05-05 14:40 | 29.55639 | -66.64046 | 34161 ft | 493 kts | 343° |
| 2026-05-05 14:40 | 29.62411 | -66.65351 | 34162 ft | 493 kts | 343° |
| 2026-05-05 14:41 | 29.69183 | -66.66657 | 34171 ft | 493 kts | 342° |
| 2026-05-05 14:41 | 29.75914 | -66.67958 | 34163 ft | 493 kts | 342° |
| 2026-05-05 14:42 | 29.82700 | -66.69271 | 34168 ft | 493 kts | 342° |
| 2026-05-05 14:42 | 29.89476 | -66.70584 | 34167 ft | 493 kts | 342° |
| 2026-05-05 14:43 | 29.96239 | -66.71915 | 34188 ft | 491 kts | 341° |
| 2026-05-05 14:43 | 30.02932 | -66.73231 | 34173 ft | 490 kts | 341° |
| 2026-05-05 14:44 | 30.09671 | -66.74558 | 34176 ft | 491 kts | 341° |
| 2026-05-05 14:44 | 30.16406 | -66.75885 | 34173 ft | 491 kts | 341° |
| 2026-05-05 14:45 | 30.23144 | -66.77215 | 34191 ft | 490 kts | 341° |
| 2026-05-05 14:45 | 30.29860 | -66.78542 | 34179 ft | 489 kts | 341° |
| 2026-05-05 14:46 | 30.36535 | -66.79863 | 34182 ft | 490 kts | 341° |
| 2026-05-05 14:46 | 30.43254 | -66.81194 | 34182 ft | 490 kts | 341° |
| 2026-05-05 14:47 | 30.49970 | -66.82527 | 34204 ft | 489 kts | 341° |
| 2026-05-05 14:47 | 30.56678 | -66.83860 | 34182 ft | 488 kts | 341° |
| 2026-05-05 14:48 | 30.63381 | -66.85194 | 34184 ft | 489 kts | 341° |
| 2026-05-05 14:48 | 30.70047 | -66.86522 | 34186 ft | 489 kts | 341° |
| 2026-05-05 14:49 | 30.76753 | -66.87860 | 34204 ft | 489 kts | 341° |
| 2026-05-05 14:49 | 30.83463 | -66.89201 | 34188 ft | 489 kts | 341° |
| 2026-05-05 14:50 | 30.90163 | -66.90542 | 34182 ft | 488 kts | 341° |
| 2026-05-05 14:50 | 30.96850 | -66.91882 | 34193 ft | 488 kts | 341° |
| 2026-05-05 14:51 | 31.03551 | -66.93226 | 34205 ft | 488 kts | 341° |
| 2026-05-05 14:51 | 31.10187 | -66.94560 | 34193 ft | 487 kts | 341° |
| 2026-05-05 14:52 | 31.16871 | -66.95906 | 34198 ft | 487 kts | 341° |
| 2026-05-05 14:52 | 31.23551 | -66.97253 | 34199 ft | 487 kts | 341° |
| 2026-05-05 14:53 | 31.30236 | -66.98603 | 34198 ft | 487 kts | 341° |
| 2026-05-05 14:53 | 31.36919 | -66.99954 | 34195 ft | 487 kts | 341° |
| 2026-05-05 14:54 | 31.43601 | -67.01307 | 34201 ft | 487 kts | 341° |
| 2026-05-05 14:54 | 31.50286 | -67.02662 | 34197 ft | 487 kts | 341° |
| 2026-05-05 14:55 | 31.56923 | -67.04010 | 34221 ft | 487 kts | 341° |
| 2026-05-05 14:55 | 31.63600 | -67.05368 | 34201 ft | 486 kts | 341° |
| 2026-05-05 14:56 | 31.70272 | -67.06726 | 34204 ft | 487 kts | 341° |
| 2026-05-05 14:56 | 31.76940 | -67.08086 | 34205 ft | 487 kts | 341° |
| 2026-05-05 14:57 | 31.83614 | -67.09449 | 34220 ft | 486 kts | 342° |
| 2026-05-05 14:57 | 31.90233 | -67.10803 | 34206 ft | 486 kts | 342° |
| 2026-05-05 14:58 | 31.96896 | -67.12168 | 34205 ft | 486 kts | 342° |
| 2026-05-05 14:58 | 32.03559 | -67.13535 | 34206 ft | 486 kts | 342° |
| 2026-05-05 14:59 | 32.10229 | -67.14905 | 34221 ft | 485 kts | 342° |
| 2026-05-05 14:59 | 32.16879 | -67.16274 | 34209 ft | 485 kts | 342° |
| 2026-05-05 15:00 | 32.22409 | -67.17413 | 34217 ft | 485 kts | 342° |
| 2026-05-05 15:00 | 32.30144 | -67.19009 | 34218 ft | 485 kts | 342° |
| 2026-05-05 15:01 | 32.36802 | -67.20385 | 34229 ft | 485 kts | 342° |
| 2026-05-05 15:01 | 32.43457 | -67.21763 | 34228 ft | 485 kts | 342° |
| 2026-05-05 15:02 | 32.50114 | -67.23143 | 34214 ft | 485 kts | 342° |
| 2026-05-05 15:02 | 32.56727 | -67.24516 | 34221 ft | 485 kts | 342° |
| 2026-05-05 15:03 | 32.63387 | -67.25900 | 34229 ft | 485 kts | 342° |
| 2026-05-05 15:03 | 32.70043 | -67.27287 | 34223 ft | 486 kts | 342° |
| 2026-05-05 15:04 | 32.76708 | -67.28677 | 34225 ft | 486 kts | 342° |
| 2026-05-05 15:04 | 32.83323 | -67.30058 | 34226 ft | 485 kts | 342° |
| 2026-05-05 15:05 | 32.93317 | -67.32150 | 34232 ft | 487 kts | 343° |
| 2026-05-05 15:06 | 32.99990 | -67.33549 | 34232 ft | 487 kts | 343° |
| 2026-05-05 15:06 | 33.06670 | -67.34952 | 34234 ft | 487 kts | 343° |
| 2026-05-05 15:07 | 33.13340 | -67.36355 | 34259 ft | 487 kts | 343° |
| 2026-05-05 15:07 | 33.19975 | -67.37752 | 34238 ft | 487 kts | 343° |
| 2026-05-05 15:08 | 33.26651 | -67.39161 | 34233 ft | 487 kts | 343° |
| 2026-05-05 15:08 | 33.33336 | -67.40573 | 34237 ft | 487 kts | 343° |
| 2026-05-05 15:09 | 33.40013 | -67.41986 | 34245 ft | 487 kts | 343° |
| 2026-05-05 15:09 | 33.46697 | -67.43403 | 34243 ft | 487 kts | 343° |
| 2026-05-05 15:10 | 33.53375 | -67.44821 | 34246 ft | 487 kts | 343° |
| 2026-05-05 15:10 | 33.60059 | -67.46242 | 34247 ft | 487 kts | 343° |
| 2026-05-05 15:11 | 33.66703 | -67.47657 | 34254 ft | 488 kts | 343° |
| 2026-05-05 15:11 | 33.73391 | -67.49083 | 34253 ft | 488 kts | 343° |
| 2026-05-05 15:12 | 33.80082 | -67.50513 | 34249 ft | 488 kts | 343° |
| 2026-05-05 15:12 | 33.86768 | -67.51944 | 34252 ft | 488 kts | 343° |
| 2026-05-05 15:13 | 33.93444 | -67.53374 | 34254 ft | 488 kts | 343° |
| 2026-05-05 15:13 | 34.00091 | -67.54801 | 34275 ft | 488 kts | 343° |
| 2026-05-05 15:14 | 34.06773 | -67.56237 | 34254 ft | 487 kts | 343° |
| 2026-05-05 15:14 | 34.13316 | -67.58076 | 34252 ft | 472 kts | 327° |
| 2026-05-05 15:14 | 34.16087 | -67.60066 | 34267 ft | 458 kts | 317° |
| 2026-05-05 15:15 | 34.18705 | -67.62281 | 34241 ft | 460 kts | 316° |
| 2026-05-05 15:15 | 34.23871 | -67.66815 | 34255 ft | 459 kts | 315° |
| 2026-05-05 15:16 | 34.28956 | -67.71387 | 34260 ft | 458 kts | 315° |
| 2026-05-05 15:16 | 34.34066 | -67.76009 | 34260 ft | 458 kts | 315° |
| 2026-05-05 15:17 | 34.39168 | -67.80632 | 34260 ft | 458 kts | 315° |
| 2026-05-05 15:17 | 34.44240 | -67.85234 | 34280 ft | 457 kts | 315° |
| 2026-05-05 15:18 | 34.49322 | -67.89853 | 34257 ft | 456 kts | 315° |
| 2026-05-05 15:18 | 34.54407 | -67.94482 | 34262 ft | 457 kts | 315° |
| 2026-05-05 15:19 | 34.59490 | -67.99117 | 34264 ft | 456 kts | 315° |
| 2026-05-05 15:19 | 34.64532 | -68.03721 | 34262 ft | 456 kts | 315° |
| 2026-05-05 15:20 | 34.69605 | -68.08361 | 34262 ft | 456 kts | 315° |
| 2026-05-05 15:20 | 34.74673 | -68.13003 | 34266 ft | 455 kts | 315° |
| 2026-05-05 15:21 | 34.79728 | -68.17641 | 34263 ft | 455 kts | 315° |
| 2026-05-05 15:21 | 34.84775 | -68.22279 | 34272 ft | 454 kts | 316° |
| 2026-05-05 15:22 | 34.89817 | -68.26919 | 34266 ft | 453 kts | 316° |
| 2026-05-05 15:22 | 34.94854 | -68.31563 | 34268 ft | 454 kts | 316° |
| 2026-05-05 15:23 | 34.99854 | -68.36180 | 34263 ft | 454 kts | 316° |
| 2026-05-05 15:23 | 35.04885 | -68.40832 | 34264 ft | 453 kts | 317° |
| 2026-05-05 15:24 | 35.09909 | -68.45486 | 34263 ft | 453 kts | 317° |
| 2026-05-05 15:24 | 35.14938 | -68.50150 | 34265 ft | 453 kts | 317° |
| 2026-05-05 15:25 | 35.19926 | -68.54785 | 34273 ft | 453 kts | 317° |
| 2026-05-05 15:25 | 35.24929 | -68.59442 | 34264 ft | 452 kts | 317° |
| 2026-05-05 15:26 | 35.29937 | -68.64109 | 34285 ft | 452 kts | 317° |
| 2026-05-05 15:26 | 35.34921 | -68.68762 | 34264 ft | 449 kts | 317° |
| 2026-05-05 15:27 | 35.39890 | -68.73409 | 34261 ft | 449 kts | 317° |
| 2026-05-05 15:27 | 35.44825 | -68.78031 | 34260 ft | 449 kts | 317° |
| 2026-05-05 15:28 | 35.49794 | -68.82692 | 34263 ft | 449 kts | 317° |
| 2026-05-05 15:28 | 35.54757 | -68.87355 | 34274 ft | 448 kts | 318° |
| 2026-05-05 15:29 | 35.59697 | -68.92004 | 34272 ft | 447 kts | 318° |
| 2026-05-05 15:29 | 35.64634 | -68.96658 | 34257 ft | 447 kts | 318° |
| 2026-05-05 15:30 | 35.69532 | -69.01281 | 34255 ft | 447 kts | 317° |
| 2026-05-05 15:30 | 35.74464 | -69.05945 | 34258 ft | 447 kts | 317° |
| 2026-05-05 15:31 | 35.79392 | -69.10613 | 34250 ft | 447 kts | 317° |
| 2026-05-05 15:31 | 35.84323 | -69.15290 | 34253 ft | 447 kts | 317° |
| 2026-05-05 15:32 | 35.89243 | -69.19964 | 34271 ft | 446 kts | 317° |
| 2026-05-05 15:32 | 35.94144 | -69.24629 | 34254 ft | 444 kts | 317° |
| 2026-05-05 15:33 | 35.99040 | -69.29295 | 34249 ft | 445 kts | 317° |
| 2026-05-05 15:33 | 36.03905 | -69.33937 | 34251 ft | 445 kts | 317° |
| 2026-05-05 15:34 | 36.08799 | -69.38616 | 34253 ft | 445 kts | 317° |
| 2026-05-05 15:34 | 36.13687 | -69.43296 | 34249 ft | 444 kts | 317° |
| 2026-05-05 15:35 | 36.18575 | -69.47991 | 34256 ft | 443 kts | 317° |
| 2026-05-05 15:35 | 36.23454 | -69.52681 | 34253 ft | 443 kts | 317° |
| 2026-05-05 15:36 | 36.28292 | -69.57339 | 34252 ft | 443 kts | 317° |
| 2026-05-05 15:36 | 36.32368 | -69.61268 | 34248 ft | 443 kts | 317° |
| 2026-05-05 15:37 | 36.37235 | -69.65968 | 34247 ft | 443 kts | 317° |
| 2026-05-05 15:37 | 36.42072 | -69.70645 | 34242 ft | 443 kts | 317° |
| 2026-05-05 15:38 | 36.46933 | -69.75354 | 34242 ft | 443 kts | 317° |
| 2026-05-05 15:38 | 36.51788 | -69.80065 | 34241 ft | 443 kts | 317° |
| 2026-05-05 15:39 | 36.56642 | -69.84782 | 34238 ft | 443 kts | 317° |
| 2026-05-05 15:39 | 36.61502 | -69.89512 | 34240 ft | 442 kts | 317° |
| 2026-05-05 15:40 | 36.66309 | -69.94199 | 34236 ft | 442 kts | 317° |
| 2026-05-05 15:40 | 36.71151 | -69.98928 | 34236 ft | 442 kts | 317° |
| 2026-05-05 15:41 | 36.75992 | -70.03664 | 34235 ft | 442 kts | 317° |
| 2026-05-05 15:41 | 36.80832 | -70.08406 | 34230 ft | 442 kts | 317° |
| 2026-05-05 15:42 | 36.85669 | -70.13153 | 34230 ft | 442 kts | 317° |
| 2026-05-05 15:42 | 36.90506 | -70.17909 | 34230 ft | 442 kts | 317° |
| 2026-05-05 15:43 | 36.95332 | -70.22661 | 34233 ft | 441 kts | 317° |
| 2026-05-05 15:43 | 37.00118 | -70.27382 | 34228 ft | 440 kts | 317° |
| 2026-05-05 15:44 | 37.04922 | -70.32129 | 34222 ft | 440 kts | 317° |
| 2026-05-05 15:44 | 37.09736 | -70.36892 | 34218 ft | 440 kts | 317° |
| 2026-05-05 15:45 | 37.14541 | -70.41655 | 34214 ft | 440 kts | 317° |
| 2026-05-05 15:45 | 37.19343 | -70.46424 | 34213 ft | 440 kts | 317° |
| 2026-05-05 15:46 | 37.24136 | -70.51191 | 34208 ft | 440 kts | 317° |
| 2026-05-05 15:46 | 37.28936 | -70.55972 | 34217 ft | 440 kts | 317° |
| 2026-05-05 15:47 | 37.33725 | -70.60752 | 34207 ft | 440 kts | 317° |
| 2026-05-05 15:47 | 37.38492 | -70.65517 | 34200 ft | 440 kts | 317° |
| 2026-05-05 15:48 | 37.43281 | -70.70312 | 34192 ft | 440 kts | 317° |
| 2026-05-05 15:48 | 37.48078 | -70.75123 | 34189 ft | 440 kts | 317° |
| 2026-05-05 15:49 | 37.52834 | -70.79902 | 34203 ft | 440 kts | 317° |
| 2026-05-05 15:49 | 37.57616 | -70.84713 | 34187 ft | 439 kts | 317° |
| 2026-05-05 15:50 | 37.62395 | -70.89528 | 34193 ft | 439 kts | 317° |
| 2026-05-05 15:50 | 37.67163 | -70.94341 | 34179 ft | 438 kts | 317° |
| 2026-05-05 15:51 | 37.72020 | -70.99016 | 34171 ft | 443 kts | 325° |
| 2026-05-05 15:51 | 37.77341 | -71.02946 | 34170 ft | 443 kts | 325° |
| 2026-05-05 15:52 | 37.82664 | -71.06889 | 34181 ft | 442 kts | 325° |
| 2026-05-05 15:52 | 37.87944 | -71.10803 | 34171 ft | 442 kts | 325° |
| 2026-05-05 15:53 | 37.93252 | -71.14744 | 34168 ft | 442 kts | 325° |
| 2026-05-05 15:53 | 37.98557 | -71.18688 | 34159 ft | 442 kts | 325° |
| 2026-05-05 15:54 | 38.03872 | -71.22647 | 34168 ft | 442 kts | 325° |
| 2026-05-05 15:54 | 38.09137 | -71.26576 | 34153 ft | 442 kts | 325° |
| 2026-05-05 15:55 | 38.14448 | -71.30546 | 34159 ft | 442 kts | 325° |
| 2026-05-05 15:55 | 38.19757 | -71.34520 | 34150 ft | 442 kts | 325° |
| 2026-05-05 15:56 | 38.25062 | -71.38500 | 34144 ft | 442 kts | 325° |
| 2026-05-05 15:56 | 38.30364 | -71.42482 | 34148 ft | 442 kts | 325° |
| 2026-05-05 15:57 | 38.35677 | -71.46480 | 34145 ft | 445 kts | 325° |
| 2026-05-05 15:57 | 38.40974 | -71.50474 | 34133 ft | 445 kts | 325° |
| 2026-05-05 15:58 | 38.46314 | -71.54506 | 34131 ft | 445 kts | 325° |
| 2026-05-05 15:58 | 38.51638 | -71.58534 | 34126 ft | 446 kts | 325° |
| 2026-05-05 15:59 | 38.56978 | -71.62580 | 34139 ft | 446 kts | 326° |
| 2026-05-05 15:59 | 38.62314 | -71.66631 | 34126 ft | 446 kts | 325° |
| 2026-05-05 16:00 | 38.67653 | -71.70691 | 34115 ft | 446 kts | 325° |
| 2026-05-05 16:00 | 38.72962 | -71.74736 | 34120 ft | 446 kts | 325° |
| 2026-05-05 16:01 | 38.78297 | -71.78806 | 34112 ft | 446 kts | 325° |
| 2026-05-05 16:01 | 38.83633 | -71.82886 | 34117 ft | 447 kts | 326° |
| 2026-05-05 16:02 | 38.88982 | -71.86982 | 34103 ft | 448 kts | 326° |
| 2026-05-05 16:02 | 38.94334 | -71.91086 | 34109 ft | 447 kts | 325° |
| 2026-05-05 16:03 | 38.99566 | -71.95321 | 34091 ft | 440 kts | 317° |
| 2026-05-05 16:03 | 39.04290 | -72.00257 | 34090 ft | 440 kts | 317° |
| 2026-05-05 16:04 | 39.09050 | -72.05232 | 34086 ft | 443 kts | 317° |
| 2026-05-05 16:04 | 39.13843 | -72.10254 | 34086 ft | 444 kts | 317° |
| 2026-05-05 16:05 | 39.18636 | -72.15287 | 34079 ft | 444 kts | 317° |
| 2026-05-05 16:05 | 39.23422 | -72.20322 | 34077 ft | 444 kts | 317° |
| 2026-05-05 16:06 | 39.28203 | -72.25360 | 34073 ft | 444 kts | 317° |
| 2026-05-05 16:06 | 39.32975 | -72.30397 | 34066 ft | 442 kts | 317° |
| 2026-05-05 16:07 | 39.37707 | -72.35403 | 34066 ft | 442 kts | 317° |
| 2026-05-05 16:07 | 39.42461 | -72.40439 | 34062 ft | 442 kts | 317° |
| 2026-05-05 16:08 | 39.47217 | -72.45487 | 34058 ft | 442 kts | 317° |
| 2026-05-05 16:08 | 39.51965 | -72.50536 | 34060 ft | 442 kts | 317° |
| 2026-05-05 16:09 | 39.56715 | -72.55596 | 34049 ft | 442 kts | 317° |
| 2026-05-05 16:09 | 39.61471 | -72.60673 | 34052 ft | 444 kts | 317° |
| 2026-05-05 16:10 | 39.66243 | -72.65776 | 34044 ft | 444 kts | 317° |
| 2026-05-05 16:10 | 39.70982 | -72.70852 | 34037 ft | 444 kts | 317° |
| 2026-05-05 16:11 | 39.75740 | -72.75958 | 34031 ft | 444 kts | 316° |
| 2026-05-05 16:11 | 39.82693 | -72.83883 | 34000 ft | 437 kts | 303° |
| 2026-05-05 16:12 | 39.84411 | -72.87126 | 34014 ft | 437 kts | 302° |
| 2026-05-05 16:13 | 39.93115 | -73.03437 | 34009 ft | 439 kts | 301° |
| 2026-05-05 16:13 | 39.96571 | -73.10000 | 34001 ft | 439 kts | 301° |
| 2026-05-05 16:14 | 40.03443 | -73.23093 | 33987 ft | 439 kts | 301° |
| 2026-05-05 16:15 | 40.10317 | -73.36243 | 33991 ft | 437 kts | 301° |
| 2026-05-05 16:16 | 40.17160 | -73.49389 | 33984 ft | 439 kts | 301° |
| 2026-05-05 16:17 | 40.22304 | -73.59306 | 33970 ft | 439 kts | 301° |
| 2026-05-05 16:18 | 40.27419 | -73.69200 | 33965 ft | 437 kts | 301° |
| 2026-05-05 16:19 | 40.32512 | -73.79082 | 33960 ft | 436 kts | 301° |
| 2026-05-05 16:19 | 40.37598 | -73.88981 | 33955 ft | 436 kts | 301° |
| 2026-05-05 16:20 | 40.44360 | -74.02192 | 33947 ft | 434 kts | 301° |
| 2026-05-05 16:22 | 40.52727 | -74.18618 | 33927 ft | 434 kts | 301° |
| 2026-05-05 16:23 | 40.59429 | -74.31837 | 33925 ft | 434 kts | 301° |
| 2026-05-05 16:23 | 40.64444 | -74.41764 | 33921 ft | 434 kts | 301° |
| 2026-05-05 16:24 | 40.67778 | -74.48383 | 33899 ft | 434 kts | 301° |
| 2026-05-05 16:25 | 40.72751 | -74.58281 | 33898 ft | 434 kts | 301° |
| 2026-05-05 16:25 | 40.77744 | -74.68250 | 33897 ft | 434 kts | 301° |
| 2026-05-05 16:26 | 40.83825 | -74.80437 | 33904 ft | 434 kts | 301° |
| 2026-05-05 16:27 | 40.87141 | -74.87101 | 33892 ft | 434 kts | 301° |
| 2026-05-05 16:27 | 40.90451 | -74.93769 | 33892 ft | 434 kts | 301° |
| 2026-05-05 16:28 | 40.93759 | -75.00447 | 33893 ft | 434 kts | 301° |
| 2026-05-05 16:28 | 40.97068 | -75.07140 | 33864 ft | 433 kts | 301° |
| 2026-05-05 16:29 | 41.00329 | -75.13752 | 33909 ft | 426 kts | 301° |
| 2026-05-05 16:29 | 41.03538 | -75.20274 | 33920 ft | 425 kts | 301° |
| 2026-05-05 16:30 | 41.06767 | -75.26848 | 33924 ft | 425 kts | 301° |
| 2026-05-05 16:30 | 41.09991 | -75.33427 | 33929 ft | 425 kts | 301° |
| 2026-05-05 16:31 | 41.13206 | -75.40000 | 33927 ft | 425 kts | 301° |
| 2026-05-05 16:31 | 41.16413 | -75.46568 | 33933 ft | 421 kts | 300° |
| 2026-05-05 16:32 | 41.19585 | -75.53077 | 33921 ft | 420 kts | 300° |
| 2026-05-05 16:32 | 41.22756 | -75.59598 | 33874 ft | 420 kts | 300° |
| 2026-05-05 16:33 | 41.25917 | -75.66114 | 33877 ft | 420 kts | 300° |
| 2026-05-05 16:33 | 41.29404 | -75.72297 | 33886 ft | 422 kts | 306° |
| 2026-05-05 16:34 | 41.33156 | -75.78303 | 33883 ft | 421 kts | 307° |
| 2026-05-05 16:34 | 41.36877 | -75.84248 | 33884 ft | 415 kts | 306° |
| 2026-05-05 16:35 | 41.40573 | -75.90160 | 33868 ft | 415 kts | 306° |
| 2026-05-05 16:35 | 41.44269 | -75.96086 | 33836 ft | 415 kts | 306° |
| 2026-05-05 16:36 | 41.47958 | -76.02011 | 33826 ft | 415 kts | 306° |
| 2026-05-05 16:36 | 41.51618 | -76.07902 | 33819 ft | 415 kts | 306° |
| 2026-05-05 16:37 | 41.55299 | -76.13838 | 33817 ft | 415 kts | 306° |
| 2026-05-05 16:37 | 41.58949 | -76.19735 | 33834 ft | 409 kts | 305° |
| 2026-05-05 16:38 | 41.62565 | -76.25589 | 33801 ft | 408 kts | 305° |
| 2026-05-05 16:38 | 41.66173 | -76.31441 | 33804 ft | 408 kts | 305° |
| 2026-05-05 16:39 | 41.69776 | -76.37296 | 33798 ft | 407 kts | 305° |
| 2026-05-05 16:39 | 41.73351 | -76.43118 | 33794 ft | 407 kts | 305° |
| 2026-05-05 16:40 | 41.76948 | -76.48986 | 33794 ft | 407 kts | 305° |
| 2026-05-05 16:40 | 41.80521 | -76.54826 | 33794 ft | 402 kts | 305° |
| 2026-05-05 16:41 | 41.84062 | -76.60626 | 33798 ft | 402 kts | 305° |
| 2026-05-05 16:41 | 41.87608 | -76.66445 | 33779 ft | 402 kts | 305° |
| 2026-05-05 16:42 | 41.91143 | -76.72258 | 33778 ft | 402 kts | 305° |
| 2026-05-05 16:42 | 41.94675 | -76.78075 | 33776 ft | 402 kts | 305° |
| 2026-05-05 16:43 | 41.98180 | -76.83860 | 33784 ft | 402 kts | 305° |
| 2026-05-05 16:43 | 42.01696 | -76.89675 | 33792 ft | 399 kts | 305° |
| 2026-05-05 16:44 | 42.05194 | -76.95467 | 33778 ft | 398 kts | 305° |
| 2026-05-05 16:44 | 42.08684 | -77.01258 | 33781 ft | 398 kts | 304° |
| 2026-05-05 16:45 | 42.11776 | -77.07395 | 33779 ft | 396 kts | 300° |
| 2026-05-05 16:45 | 42.14851 | -77.13555 | 33780 ft | 396 kts | 300° |
| 2026-05-05 16:46 | 42.17940 | -77.19711 | 33781 ft | 396 kts | 301° |
| 2026-05-05 16:46 | 42.21005 | -77.25821 | 33780 ft | 394 kts | 300° |
| 2026-05-05 16:47 | 42.24064 | -77.31934 | 33775 ft | 393 kts | 300° |
| 2026-05-05 16:47 | 42.27117 | -77.38047 | 33792 ft | 392 kts | 300° |
| 2026-05-05 16:48 | 42.30167 | -77.44164 | 33782 ft | 392 kts | 300° |
| 2026-05-05 16:48 | 42.33200 | -77.50262 | 33062 ft | 388 kts | 300° |
| 2026-05-05 16:49 | 42.34698 | -77.53277 | 32564 ft | 383 kts | 300° |
| 2026-05-05 16:49 | 42.36164 | -77.56231 | 32286 ft | 376 kts | 300° |
| 2026-05-05 16:49 | 42.37643 | -77.59215 | 31990 ft | 388 kts | 300° |
| 2026-05-05 16:49 | 42.39150 | -77.62258 | 31505 ft | 390 kts | 299° |
| 2026-05-05 16:50 | 42.40657 | -77.65302 | 30927 ft | 389 kts | 300° |
| 2026-05-05 16:50 | 42.42159 | -77.68342 | 30367 ft | 388 kts | 300° |
| 2026-05-05 16:50 | 42.43658 | -77.71379 | 29840 ft | 388 kts | 300° |
| 2026-05-05 16:50 | 42.45134 | -77.74373 | 29231 ft | 387 kts | 300° |
| 2026-05-05 16:51 | 42.46624 | -77.77396 | 28699 ft | 386 kts | 300° |
| 2026-05-05 16:51 | 42.48109 | -77.80414 | 28192 ft | 384 kts | 300° |
| 2026-05-05 16:51 | 42.49590 | -77.83425 | 27700 ft | 382 kts | 300° |
| 2026-05-05 16:51 | 42.51060 | -77.86419 | 27194 ft | 380 kts | 300° |
| 2026-05-05 16:52 | 42.52521 | -77.89394 | 26707 ft | 378 kts | 300° |
| 2026-05-05 16:52 | 42.53974 | -77.92360 | 26200 ft | 376 kts | 300° |
| 2026-05-05 16:52 | 42.55419 | -77.95309 | 25735 ft | 375 kts | 300° |
| 2026-05-05 16:52 | 42.56856 | -77.98245 | 25260 ft | 372 kts | 299° |
| 2026-05-05 16:53 | 42.58284 | -78.01167 | 24793 ft | 370 kts | 299° |
| 2026-05-05 16:53 | 42.59705 | -78.04076 | 24331 ft | 369 kts | 299° |
| 2026-05-05 16:53 | 42.61121 | -78.06980 | 23892 ft | 368 kts | 299° |
| 2026-05-05 16:53 | 42.62533 | -78.09876 | 23434 ft | 367 kts | 298° |
| 2026-05-05 16:54 | 42.63938 | -78.12763 | 22910 ft | 366 kts | 298° |
| 2026-05-05 16:54 | 42.65337 | -78.15638 | 22443 ft | 364 kts | 298° |
| 2026-05-05 16:54 | 42.66726 | -78.18495 | 22000 ft | 362 kts | 298° |
| 2026-05-05 16:54 | 42.68090 | -78.21306 | 21575 ft | 360 kts | 298° |
| 2026-05-05 16:55 | 42.69463 | -78.24137 | 21159 ft | 358 kts | 298° |
| 2026-05-05 16:55 | 42.70830 | -78.26958 | 20748 ft | 356 kts | 298° |
| 2026-05-05 16:55 | 42.72188 | -78.29761 | 20334 ft | 354 kts | 298° |
| 2026-05-05 16:55 | 42.73537 | -78.32552 | 19929 ft | 352 kts | 298° |
| 2026-05-05 16:56 | 42.74879 | -78.35328 | 19541 ft | 350 kts | 298° |
| 2026-05-05 16:56 | 42.76217 | -78.38099 | 19138 ft | 348 kts | 297° |
| 2026-05-05 16:56 | 42.77543 | -78.40849 | 18754 ft | 347 kts | 297° |
| 2026-05-05 16:56 | 42.78865 | -78.43592 | 18372 ft | 345 kts | 297° |
| 2026-05-05 16:57 | 42.80175 | -78.46312 | 17985 ft | 343 kts | 297° |
| 2026-05-05 16:57 | 42.81463 | -78.48989 | 17578 ft | 341 kts | 297° |
| 2026-05-05 16:57 | 42.82758 | -78.51684 | 17323 ft | 339 kts | 297° |
| 2026-05-05 16:57 | 42.84049 | -78.54373 | 17027 ft | 338 kts | 297° |
| 2026-05-05 16:58 | 42.85330 | -78.57043 | 16691 ft | 336 kts | 297° |
| 2026-05-05 16:58 | 42.86604 | -78.59700 | 16347 ft | 333 kts | 297° |
| 2026-05-05 16:58 | 42.87871 | -78.62343 | 15971 ft | 331 kts | 297° |
| 2026-05-05 16:58 | 42.89126 | -78.64964 | 15640 ft | 329 kts | 297° |
| 2026-05-05 16:59 | 42.90375 | -78.67575 | 15282 ft | 327 kts | 297° |
| 2026-05-05 16:59 | 42.91612 | -78.70165 | 14936 ft | 325 kts | 297° |
| 2026-05-05 16:59 | 42.92841 | -78.72737 | 14580 ft | 322 kts | 297° |
| 2026-05-05 16:59 | 42.94200 | -78.75187 | 14154 ft | 326 kts | 304° |
| 2026-05-05 17:00 | 42.95655 | -78.77535 | 13778 ft | 322 kts | 303° |
| 2026-05-05 17:00 | 42.97080 | -78.79871 | 13427 ft | 318 kts | 303° |
| 2026-05-05 17:00 | 42.98479 | -78.82183 | 13052 ft | 313 kts | 303° |
| 2026-05-05 17:00 | 42.99854 | -78.84470 | 12695 ft | 309 kts | 302° |
| 2026-05-05 17:01 | 43.01204 | -78.86720 | 12363 ft | 304 kts | 302° |
| 2026-05-05 17:01 | 43.02538 | -78.88950 | 12031 ft | 303 kts | 302° |
| 2026-05-05 17:01 | 43.03870 | -78.91178 | 11703 ft | 309 kts | 302° |
| 2026-05-05 17:01 | 43.05234 | -78.93460 | 11356 ft | 311 kts | 302° |
| 2026-05-05 17:02 | 43.06604 | -78.95756 | 11043 ft | 310 kts | 303° |
| 2026-05-05 17:02 | 43.07956 | -78.98021 | 10789 ft | 301 kts | 302° |
| 2026-05-05 17:02 | 43.09232 | -79.00158 | 10660 ft | 278 kts | 302° |
| 2026-05-05 17:02 | 43.10418 | -79.02148 | 10594 ft | 263 kts | 301° |
| 2026-05-05 17:03 | 43.11557 | -79.04064 | 10479 ft | 256 kts | 301° |
| 2026-05-05 17:03 | 43.12664 | -79.05927 | 10319 ft | 249 kts | 301° |
| 2026-05-05 17:03 | 43.13751 | -79.07745 | 10165 ft | 248 kts | 301° |
| 2026-05-05 17:03 | 43.14863 | -79.09605 | 10037 ft | 256 kts | 301° |
| 2026-05-05 17:04 | 43.16005 | -79.11513 | 9784 ft | 261 kts | 301° |
| 2026-05-05 17:04 | 43.17158 | -79.13441 | 9475 ft | 262 kts | 301° |
| 2026-05-05 17:04 | 43.18313 | -79.15376 | 9176 ft | 262 kts | 301° |
| 2026-05-05 17:04 | 43.19465 | -79.17307 | 8886 ft | 261 kts | 301° |
| 2026-05-05 17:05 | 43.20596 | -79.19203 | 8624 ft | 260 kts | 301° |
| 2026-05-05 17:05 | 43.21739 | -79.21119 | 8346 ft | 259 kts | 301° |
| 2026-05-05 17:05 | 43.22869 | -79.23016 | 8065 ft | 256 kts | 301° |
| 2026-05-05 17:05 | 43.23990 | -79.24899 | 7788 ft | 253 kts | 301° |
| 2026-05-05 17:06 | 43.25096 | -79.26760 | 7523 ft | 250 kts | 301° |
| 2026-05-05 17:06 | 43.26185 | -79.28591 | 7303 ft | 244 kts | 301° |
| 2026-05-05 17:06 | 43.27239 | -79.30365 | 7183 ft | 235 kts | 300° |
| 2026-05-05 17:06 | 43.28254 | -79.32072 | 7088 ft | 228 kts | 300° |
| 2026-05-05 17:07 | 43.29280 | -79.33725 | 7008 ft | 231 kts | 308° |
| 2026-05-05 17:07 | 43.30732 | -79.34819 | 6811 ft | 251 kts | 337° |
| 2026-05-05 17:07 | 43.32529 | -79.34832 | 6607 ft | 269 kts | 6° |
| 2026-05-05 17:07 | 43.34351 | -79.34156 | 6426 ft | 272 kts | 7° |
| 2026-05-05 17:08 | 43.36186 | -79.33496 | 6188 ft | 272 kts | 7° |
| 2026-05-05 17:08 | 43.37986 | -79.32861 | 5969 ft | 270 kts | 7° |
| 2026-05-05 17:08 | 43.39797 | -79.32230 | 5723 ft | 267 kts | 7° |
| 2026-05-05 17:08 | 43.41586 | -79.31844 | 5484 ft | 251 kts | 346° |
| 2026-05-05 17:09 | 43.43134 | -79.32539 | 5337 ft | 223 kts | 319° |
| 2026-05-05 17:09 | 43.44396 | -79.33682 | 5197 ft | 213 kts | 316° |
| 2026-05-05 17:09 | 43.45597 | -79.34823 | 5031 ft | 206 kts | 315° |
| 2026-05-05 17:09 | 43.46746 | -79.35950 | 4875 ft | 199 kts | 314° |
| 2026-05-05 17:10 | 43.47843 | -79.37050 | 4724 ft | 192 kts | 314° |
| 2026-05-05 17:10 | 43.48919 | -79.38142 | 4594 ft | 193 kts | 314° |
| 2026-05-05 17:10 | 43.49982 | -79.39271 | 4455 ft | 191 kts | 309° |
| 2026-05-05 17:10 | 43.50952 | -79.40520 | 4294 ft | 190 kts | 308° |
| 2026-05-05 17:11 | 43.51915 | -79.41763 | 4156 ft | 189 kts | 309° |
| 2026-05-05 17:11 | 43.52878 | -79.42997 | 4044 ft | 188 kts | 309° |
| 2026-05-05 17:11 | 43.53822 | -79.44214 | 3882 ft | 184 kts | 309° |
| 2026-05-05 17:11 | 43.54742 | -79.45405 | 3709 ft | 178 kts | 311° |
| 2026-05-05 17:12 | 43.55602 | -79.46516 | 3555 ft | 166 kts | 310° |
| 2026-05-05 17:12 | 43.56406 | -79.47555 | 3375 ft | 149 kts | 311° |
| 2026-05-05 17:12 | 43.57145 | -79.48514 | 3223 ft | 145 kts | 311° |
| 2026-05-05 17:12 | 43.57876 | -79.49464 | 3040 ft | 144 kts | 310° |
| 2026-05-05 17:13 | 43.58606 | -79.50415 | 2847 ft | 145 kts | 311° |
| 2026-05-05 17:13 | 43.59336 | -79.51366 | 2660 ft | 144 kts | 312° |
| 2026-05-05 17:13 | 43.60061 | -79.52308 | 2486 ft | 142 kts | 311° |
| 2026-05-05 17:13 | 43.60780 | -79.53241 | 2293 ft | 141 kts | 311° |
| 2026-05-05 17:14 | 43.61498 | -79.54177 | 2110 ft | 143 kts | 312° |
| 2026-05-05 17:14 | 43.62226 | -79.55124 | 1916 ft | 144 kts | 312° |
| 2026-05-05 17:14 | 43.62708 | -79.55751 | 1796 ft | 143 kts | 313° |
| 2026-05-05 17:14 | 43.63439 | -79.56703 | 1605 ft | 145 kts | 310° |
| 2026-05-05 17:15 | 43.64165 | -79.57645 | 1410 ft | 142 kts | 311° |
| 2026-05-05 17:15 | 43.64891 | -79.58593 | 1212 ft | 145 kts | 311° |
| 2026-05-05 17:15 | 43.65621 | -79.59543 | 1036 ft | 142 kts | 311° |
| 2026-05-05 17:15 | 43.66331 | -79.60478 | 820 ft | 140 kts | 312° |
| 2026-05-05 17:16 | 43.67050 | -79.61404 | 652 ft | 141 kts | 312° |
| 2026-05-05 17:16 | 43.67707 | -79.62275 | 569 ft | 96 kts | 315° |
| 2026-05-05 17:16 | 43.67964 | -79.62605 | 576 ft | 34 kts | 327° |
| 2026-05-05 17:16 | 43.68065 | -79.62695 | 576 ft | 17 kts | 333° |
| 2026-05-05 17:17 | 43.68183 | -79.62741 | 571 ft | 12 kts | 349° |
| 2026-05-05 17:17 | 43.68198 | -79.62745 | 572 ft | 4 kts | 349° |
| 2026-05-05 17:17 | 43.68234 | -79.62754 | 573 ft | 7 kts | 349° |
| 2026-05-05 17:17 | 43.68301 | -79.62773 | 575 ft | 13 kts | 349° |
| 2026-05-05 17:18 | 43.68364 | -79.62789 | 571 ft | 11 kts | 351° |
| 2026-05-05 17:18 | 43.68446 | -79.62730 | 567 ft | 17 kts | 46° |
| 2026-05-05 17:18 | 43.68477 | -79.62687 | 564 ft | 6 kts | 47° |
| 2026-05-05 17:18 | 43.68492 | -79.62612 | 570 ft | 10 kts | 95° |
| 2026-05-05 17:19 | 43.68491 | -79.62531 | 564 ft | 3 kts | 89° |
| 2026-05-05 17:19 | 43.68492 | -79.62486 | 568 ft | 0 kts | 88° |